Terminal Aerodrome Forecast
Issued by NWS

Home | Current Version | Previous Version | Graphics & Text | Print | Product List | Glossary On
Versions: 1 2 3 4 5 6 7 8 9 10 11 12 13 14 15 16 17 18 19 20 21 22 23 24 25 26 27 28 29 30 31 32 33 34 35 36 37 38 39 40 41 42 43 44 45 46 47 48
000
FTUS43 KGRB 210520
TAFRHI
TAF
KRHI 210520Z 2106/2206 13004KT 2SM -DZ BR OVC004
      TEMPO 2108/2112 1/2SM -FZDZ FG OVC002
     FM211200 12005KT 1/4SM -FZDZ FG OVC002
      TEMPO 2112/2115 1/2SM DZ FG OVC003
     FM211500 10007KT 1/2SM -RA FG OVC003
     FM212300 13005KT 3/4SM -DZ BR OVC003
     FM220200 22004KT 1/2SM -DZ FG OVC003=

USA.gov is the U.S. government's official web portal to all federal, state and local government web resources and services.